Time;durP1;ratioP1;P1;durP2;ratioP2;P2;SDS_P1;SDS_P2;PMS_P1;PMS_P2;Temp;Humidity;BMP_temperature;BMP_pressure;BME280_temperature;BME280_humidity;BME280_pressure;Samples;Min_cycle;Max_cycle;Signal;HPM_P1;HPM_P2
2020/12/10 00:02:19;;;;;;;28.10;15.33;;;2.30;81.70;;;;;;5093009;28;20187;-67
2020/12/10 00:04:44;;;;;;;24.50;13.80;;;2.20;99.90;;;;;;5093282;28;20163;-68
2020/12/10 00:07:10;;;;;;;28.70;15.10;;;2.20;92.90;;;;;;5093349;28;20187;-68
2020/12/10 00:09:35;;;;;;;25.80;15.50;;;2.20;92.20;;;;;;5093255;28;20171;-67
2020/12/10 00:12:02;;;;;;;24.27;14.43;;;2.10;84.20;;;;;;5092820;28;20175;-69
2020/12/10 00:14:27;;;;;;;25.40;14.27;;;2.20;55.90;;;;;;5093100;28;20172;-67
2020/12/10 00:16:53;;;;;;;28.20;15.70;;;2.20;48.30;;;;;;5092927;28;20221;-68
2020/12/10 00:19:18;;;;;;;21.50;14.53;;;2.20;61.40;;;;;;5092834;28;20207;-68
2020/12/10 00:21:44;;;;;;;27.57;14.73;;;2.10;65.10;;;;;;5095873;28;20531;-68
2020/12/10 00:24:09;;;;;;;23.60;14.33;;;2.00;95.30;;;;;;5096952;28;20687;-69
2020/12/10 00:26:35;;;;;;;25.47;15.87;;;1.90;99.90;;;;;;5097198;28;20532;-68
2020/12/10 00:29:01;;;;;;;25.60;13.53;;;2.00;99.90;;;;;;5097129;28;20247;-67
2020/12/10 00:31:26;;;;;;;22.93;14.37;;;2.10;82.50;;;;;;5096894;28;20171;-68
2020/12/10 00:33:52;;;;;;;27.20;15.93;;;2.00;90.40;;;;;;5096838;28;20183;-69
2020/12/10 00:36:17;;;;;;;26.63;16.10;;;1.80;99.90;;;;;;5096708;28;20220;-67
2020/12/10 00:38:43;;;;;;;32.53;16.87;;;1.90;99.90;;;;;;5096621;28;20196;-67
2020/12/10 00:41:08;;;;;;;26.33;16.57;;;1.90;99.90;;;;;;5096735;28;20167;-69
2020/12/10 00:43:34;;;;;;;26.97;14.43;;;2.00;99.90;;;;;;5096705;28;20183;-69
2020/12/10 00:46:04;;;;;;;25.90;14.87;;;1.80;99.90;;;;;;5096637;28;20178;-69
2020/12/10 00:48:30;;;;;;;29.83;14.40;;;1.80;99.90;;;;;;5096836;28;20553;-69
2020/12/10 00:50:56;;;;;;;23.92;13.88;;;1.80;99.90;;;;;;5096491;28;20179;-68
2020/12/10 00:53:21;;;;;;;29.07;14.67;;;2.00;99.90;;;;;;5096617;28;20187;-69
2020/12/10 00:55:47;;;;;;;27.67;15.37;;;2.00;99.90;;;;;;5096577;28;20171;-69
2020/12/10 00:58:13;;;;;;;25.40;15.20;;;2.10;99.90;;;;;;5096483;28;20206;-69
2020/12/10 01:00:38;;;;;;;23.90;14.73;;;2.20;91.90;;;;;;5096305;28;20168;-69
2020/12/10 01:03:04;;;;;;;28.60;17.50;;;2.10;99.90;;;;;;5096425;28;20558;-69
2020/12/10 01:05:29;;;;;;;26.50;15.30;;;2.30;85.00;;;;;;5096424;28;20172;-69
2020/12/10 01:07:55;;;;;;;27.63;16.50;;;2.20;84.00;;;;;;5096077;28;20198;-69
2020/12/10 01:10:21;;;;;;;24.00;15.80;;;2.20;85.50;;;;;;5096120;28;20707;-69
2020/12/10 01:12:46;;;;;;;27.70;16.97;;;2.10;98.50;;;;;;5096031;28;20214;-69
2020/12/10 01:15:12;;;;;;;27.90;15.10;;;1.60;99.90;;;;;;5096065;28;20167;-69
2020/12/10 01:17:41;;;;;;;22.33;13.07;;;1.60;99.90;;;;;;5096175;28;20178;-69
2020/12/10 01:20:07;;;;;;;24.95;15.60;;;1.50;99.90;;;;;;5095893;28;20647;-69
2020/12/10 01:22:33;;;;;;;27.93;14.73;;;1.70;99.90;;;;;;5096051;28;20183;-67
2020/12/10 01:24:58;;;;;;;24.63;14.73;;;1.50;99.90;;;;;;5096344;28;20409;-69
2020/12/10 01:27:24;;;;;;;26.83;16.37;;;1.60;99.90;;;;;;5095744;28;20640;-68
2020/12/10 01:29:49;;;;;;;25.43;15.13;;;1.50;99.90;;;;;;5095684;28;20183;-68
2020/12/10 01:32:16;;;;;;;23.03;13.47;;;1.50;1.00;;;;;;5095337;28;20182;-68
2020/12/10 01:34:41;;;;;;;25.70;15.25;;;1.40;99.90;;;;;;5096151;28;20171;-67
2020/12/10 01:37:07;;;;;;;25.10;14.50;;;1.70;99.90;;;;;;5095566;28;20178;-68
2020/12/10 01:39:32;;;;;;;27.10;16.13;;;1.80;99.90;;;;;;5095467;28;20222;-68
2020/12/10 01:42:02;;;;;;;30.43;14.73;;;1.90;99.90;;;;;;5095405;28;20164;-68
2020/12/10 01:44:28;;;;;;;25.27;15.00;;;2.00;99.90;;;;;;5096059;28;20164;-68
2020/12/10 01:46:54;;;;;;;23.30;14.47;;;2.00;99.90;;;;;;5095426;28;20163;-67
2020/12/10 01:49:19;;;;;;;26.30;15.90;;;2.00;99.90;;;;;;5095341;28;20537;-68
2020/12/10 01:51:45;;;;;;;23.40;14.10;;;1.80;99.90;;;;;;5095586;28;20501;-68
2020/12/10 01:54:10;;;;;;;27.70;15.83;;;1.80;99.90;;;;;;5095250;28;20195;-68
2020/12/10 01:56:36;;;;;;;22.80;13.60;;;1.90;99.90;;;;;;5095400;28;20164;-69
2020/12/10 01:59:03;;;;;;;25.53;15.63;;;1.90;99.90;;;;;;5095328;28;20206;-69
2020/12/10 02:01:30;;;;;;;27.70;15.05;;;1.80;99.90;;;;;;5095427;28;20168;-69
2020/12/10 02:03:56;;;;;;;22.63;15.15;;;1.70;99.90;;;;;;5095018;28;20206;-69
2020/12/10 02:06:22;;;;;;;26.90;15.57;;;1.80;99.90;;;;;;5094999;28;20524;-69
2020/12/10 02:08:48;;;;;;;29.43;14.67;;;1.70;99.90;;;;;;5095280;28;20176;-68
2020/12/10 02:11:13;;;;;;;23.37;13.90;;;1.80;99.90;;;;;;5095113;28;20578;-69
2020/12/10 02:13:40;;;;;;;24.40;15.03;;;2.00;99.90;;;;;;5094637;28;20599;-69
2020/12/10 02:16:06;;;;;;;22.23;13.43;;;2.10;99.90;;;;;;5095059;28;20206;-69
2020/12/10 02:18:32;;;;;;;25.67;15.07;;;2.00;99.90;;;;;;5094958;28;20195;-69
2020/12/10 02:20:58;;;;;;;22.37;14.93;;;2.00;99.90;;;;;;5094737;28;20219;-68
2020/12/10 02:23:24;;;;;;;24.05;14.98;;;1.90;99.90;;;;;;5094587;28;20203;-68
2020/12/10 02:25:49;;;;;;;26.17;16.03;;;1.80;99.90;;;;;;5094896;28;20167;-69
2020/12/10 02:28:16;;;;;;;23.90;14.67;;;1.70;99.90;;;;;;5094616;28;20163;-69
2020/12/10 02:30:43;;;;;;;25.45;15.38;;;2.00;99.90;;;;;;5094796;28;20171;-69
2020/12/10 02:33:10;;;;;;;27.20;15.88;;;1.90;99.90;;;;;;5094407;28;20279;-68
2020/12/10 02:35:37;;;;;;;24.60;16.20;;;1.90;99.90;;;;;;5094344;28;20179;-69
2020/12/10 02:38:04;;;;;;;24.95;16.92;;;1.70;99.90;;;;;;5094305;28;20200;-68
2020/12/10 02:40:36;;;;;;;22.60;14.23;;;1.80;99.90;;;;;;5094279;28;20171;-68
2020/12/10 02:43:02;;;;;;;25.42;14.70;;;1.80;99.90;;;;;;5093532;28;20285;-67
2020/12/10 02:45:28;;;;;;;22.20;14.50;;;1.40;99.90;;;;;;5094268;28;20225;-68
2020/12/10 02:47:54;;;;;;;25.07;15.37;;;1.10;99.90;;;;;;5094175;28;20443;-69
2020/12/10 02:50:21;;;;;;;25.70;14.73;;;1.00;99.90;;;;;;5094602;28;20380;-68
2020/12/10 02:52:46;;;;;;;23.73;14.60;;;1.10;1.00;;;;;;5094364;28;20705;-69
2020/12/10 02:55:12;;;;;;;24.80;15.60;;;0.90;99.90;;;;;;5094083;28;20171;-69
2020/12/10 02:57:37;;;;;;;23.60;13.73;;;0.80;1.00;;;;;;5094733;28;20175;-69
2020/12/10 03:00:08;;;;;;;24.03;15.20;;;0.80;60.80;;;;;;5093957;28;20250;-68
2020/12/10 03:02:34;;;;;;;24.60;15.88;;;0.90;1.00;;;;;;5093876;28;20244;-68
2020/12/10 03:05:00;;;;;;;24.07;15.10;;;0.80;1.00;;;;;;5093931;28;20167;-69
2020/12/10 03:07:25;;;;;;;25.33;15.60;;;0.90;1.00;;;;;;5093888;28;20467;-69
2020/12/10 03:09:51;;;;;;;20.87;14.10;;;0.70;1.00;;;;;;5093808;28;20634;-69
2020/12/10 03:12:16;;;;;;;25.80;14.80;;;0.90;1.00;;;;;;5093832;28;20175;-68
2020/12/10 03:14:42;;;;;;;30.67;15.50;;;0.90;1.00;;;;;;5094089;28;20600;-68
2020/12/10 03:17:08;;;;;;;25.33;15.30;;;0.80;1.00;;;;;;5094310;28;20558;-69
2020/12/10 03:19:33;;;;;;;26.60;15.57;;;0.70;1.00;;;;;;5093735;28;20195;-68
2020/12/10 03:21:59;;;;;;;22.93;15.20;;;0.80;1.00;;;;;;5093660;28;20168;-69
2020/12/10 03:24:24;;;;;;;29.50;16.60;;;0.60;1.00;;;;;;5093850;28;20243;-69
2020/12/10 03:26:50;;;;;;;24.87;15.70;;;0.60;41.40;;;;;;5093792;28;20164;-69
2020/12/10 03:29:16;;;;;;;27.50;16.83;;;0.70;99.90;;;;;;5093465;28;20179;-68
2020/12/10 03:31:41;;;;;;;28.37;15.97;;;0.90;99.90;;;;;;5093468;28;20173;-69
2020/12/10 03:34:07;;;;;;;53.17;18.83;;;1.00;1.00;;;;;;5093452;28;20210;-69
2020/12/10 03:36:47;;;;;;;22.13;14.93;;;1.10;1.00;;;;;;5093922;28;20163;-69
2020/12/10 03:39:13;;;;;;;40.20;17.52;;;1.10;99.90;;;;;;5093950;28;20233;-68
2020/12/10 03:41:39;;;;;;;24.80;15.40;;;1.30;1.00;;;;;;5093686;28;20203;-68
2020/12/10 03:44:04;;;;;;;26.87;15.20;;;1.00;99.90;;;;;;5093219;28;20213;-69
2020/12/10 03:46:30;;;;;;;24.07;15.40;;;0.90;1.00;;;;;;5093317;28;20372;-69
2020/12/10 03:48:56;;;;;;;24.20;14.13;;;0.80;1.00;;;;;;5093478;28;20210;-69
2020/12/10 03:51:21;;;;;;;23.97;14.60;;;0.90;1.00;;;;;;5093206;28;20178;-69
2020/12/10 03:53:47;;;;;;;27.43;16.97;;;0.80;1.00;;;;;;5093149;28;20291;-69
2020/12/10 03:56:12;;;;;;;25.17;15.53;;;0.90;1.00;;;;;;5093084;28;20179;-69
2020/12/10 03:58:38;;;;;;;26.10;15.83;;;0.90;1.00;;;;;;5093059;28;20250;-68
2020/12/10 04:01:03;;;;;;;26.97;15.83;;;0.80;1.00;;;;;;5093233;28;20171;-69
2020/12/10 04:03:29;;;;;;;26.20;15.80;;;0.90;1.00;;;;;;5093333;28;20195;-69
2020/12/10 04:05:54;;;;;;;22.73;14.60;;;0.90;1.00;;;;;;5093045;28;20171;-69
2020/12/10 04:08:20;;;;;;;23.43;15.43;;;0.70;1.00;;;;;;5093290;28;20175;-68
2020/12/10 04:10:45;;;;;;;45.23;19.03;;;1.00;99.90;;;;;;5092985;28;20254;-69
2020/12/10 04:13:11;;;;;;;30.57;18.20;;;1.10;1.00;;;;;;5092880;28;20272;-69
2020/12/10 04:15:37;;;;;;;29.30;16.97;;;1.30;1.00;;;;;;5092907;28;20167;-69
2020/12/10 04:18:02;;;;;;;29.43;18.40;;;1.60;99.90;;;;;;5092880;28;20203;-69
2020/12/10 04:20:28;;;;;;;28.23;17.73;;;1.60;99.90;;;;;;5093039;28;20199;-68
2020/12/10 04:22:53;;;;;;;29.13;18.27;;;1.60;99.90;;;;;;5093053;28;20254;-69
2020/12/10 04:25:19;;;;;;;27.37;17.00;;;1.40;99.90;;;;;;5092874;28;20632;-69
2020/12/10 04:27:45;;;;;;;25.48;15.73;;;1.60;99.90;;;;;;5092770;28;20182;-69
2020/12/10 04:30:10;;;;;;;26.73;16.20;;;1.60;99.90;;;;;;5092905;28;20171;-68
2020/12/10 04:32:36;;;;;;;26.23;16.37;;;1.80;99.90;;;;;;5092750;28;20210;-67
2020/12/10 04:35:02;;;;;;;26.43;16.10;;;1.80;99.90;;;;;;5092784;28;20703;-68
2020/12/10 04:37:28;;;;;;;29.30;18.50;;;2.00;99.90;;;;;;5092755;28;20213;-68
2020/12/10 04:39:53;;;;;;;26.70;16.67;;;2.00;99.90;;;;;;5092603;28;20453;-68
2020/12/10 04:42:19;;;;;;;24.43;15.93;;;2.10;99.90;;;;;;5092878;28;20191;-68
2020/12/10 04:44:48;;;;;;;34.80;17.17;;;1.90;99.90;;;;;;5092892;28;20190;-68
2020/12/10 04:47:15;;;;;;;27.42;16.98;;;1.30;99.90;;;;;;5092881;28;20205;-66
2020/12/10 04:49:41;;;;;;;26.20;15.98;;;1.20;99.90;;;;;;5093117;28;20167;-68
2020/12/10 04:52:10;;;;;;;28.38;16.20;;;0.90;99.90;;;;;;5092814;28;20582;-68
2020/12/10 04:54:36;;;;;;;30.77;17.70;;;1.10;1.00;;;;;;5092800;28;20676;-67
2020/12/10 04:57:02;;;;;;;25.60;15.87;;;1.00;1.00;;;;;;5092655;28;20257;-68
2020/12/10 04:59:28;;;;;;;25.95;16.05;;;1.30;1.00;;;;;;5092666;28;20199;-68
2020/12/10 05:01:56;;;;;;;30.93;17.83;;;1.30;1.00;;;;;;5093085;28;20237;-67
2020/12/10 05:04:23;;;;;;;27.17;16.65;;;1.10;1.00;;;;;;5092618;28;20180;-68
2020/12/10 05:06:50;;;;;;;25.77;17.55;;;0.90;1.00;;;;;;5094243;28;20258;-68
2020/12/10 05:09:17;;;;;;;26.58;15.80;;;1.10;1.00;;;;;;5098552;28;20175;-68
2020/12/10 05:11:44;;;;;;;24.45;16.00;;;1.10;1.00;;;;;;5096774;28;20255;-67
2020/12/10 05:14:09;;;;;;;28.08;17.63;;;1.60;99.90;;;;;;5097047;28;20223;-67
2020/12/10 05:16:35;;;;;;;31.40;18.70;;;1.60;99.90;;;;;;5095904;28;20194;-68
2020/12/10 05:19:20;;;;;;;27.03;15.27;;;1.30;99.90;;;;;;5095800;28;20187;-67
2020/12/10 05:22:04;;;;;;;29.13;16.42;;;1.20;99.90;;;;;;5095827;28;20658;-67
2020/12/10 05:24:30;;;;;;;27.25;15.57;;;0.90;1.00;;;;;;5096130;28;20164;-67
2020/12/10 05:27:15;;;;;;;27.27;17.45;;;1.10;99.90;;;;;;5096038;28;20587;-68
2020/12/10 05:29:40;;;;;;;27.27;16.27;;;1.30;1.00;;;;;;5111342;28;20183;-68
2020/12/10 05:32:07;;;;;;;30.30;16.20;;;1.20;99.90;;;;;;5095572;28;20178;-68
2020/12/10 05:34:32;;;;;;;23.40;15.20;;;1.30;99.90;;;;;;5095571;28;20171;-68
2020/12/10 05:36:58;;;;;;;24.73;16.57;;;1.00;99.90;;;;;;5095574;28;20585;-66
2020/12/10 05:39:23;;;;;;;26.70;15.90;;;1.20;1.00;;;;;;5095472;28;20191;-66
2020/12/10 05:41:53;;;;;;;26.77;15.00;;;1.30;1.00;;;;;;5095307;28;20171;-67
2020/12/10 05:44:20;;;;;;;28.10;16.63;;;1.20;99.90;;;;;;5095605;28;20313;-67
2020/12/10 05:46:49;;;;;;;30.90;15.50;;;1.10;99.90;;;;;;5095278;28;20171;-67
2020/12/10 05:49:15;;;;;;;29.05;16.48;;;1.00;1.00;;;;;;5095629;28;20195;-67
2020/12/10 05:51:45;;;;;;;29.52;16.40;;;1.00;1.00;;;;;;5095145;28;20249;-68
2020/12/10 05:54:16;;;;;;;25.65;16.45;;;1.10;1.00;;;;;;5095274;28;20188;-67
2020/12/10 05:56:53;;;;;;;24.42;15.23;;;1.00;1.00;;;;;;5095345;28;20675;-68
2020/12/10 05:59:19;;;;;;;24.27;14.85;;;1.00;1.00;;;;;;5095483;28;20202;-67
2020/12/10 06:01:47;;;;;;;23.77;14.90;;;1.00;1.00;;;;;;5095214;28;20172;-68
2020/12/10 06:04:13;;;;;;;22.85;13.73;;;1.20;1.00;;;;;;5094708;28;20723;-67
2020/12/10 06:06:38;;;;;;;22.48;14.95;;;1.00;99.90;;;;;;5095116;28;20195;-66
2020/12/10 06:09:07;;;;;;;23.93;14.93;;;0.80;1.00;;;;;;5094929;28;20201;-68
2020/12/10 06:11:34;;;;;;;22.52;15.10;;;0.90;1.00;;;;;;5094825;28;20194;-67
2020/12/10 06:14:05;;;;;;;25.02;14.82;;;1.10;1.00;;;;;;5094488;28;20221;-68
2020/12/10 06:16:31;;;;;;;27.70;16.15;;;1.60;99.90;;;;;;5094550;28;20195;-68
2020/12/10 06:19:01;;;;;;;30.33;16.93;;;1.70;99.90;;;;;;5093764;28;20226;-68
2020/12/10 06:21:45;;;;;;;21.23;13.30;;;1.80;99.90;;;;;;5094834;28;20394;-67
2020/12/10 06:24:25;;;;;;;29.15;16.30;;;1.60;99.90;;;;;;5094399;28;20183;-68
2020/12/10 06:26:55;;;;;;;28.15;15.52;;;1.60;99.90;;;;;;5094419;28;20242;-68
2020/12/10 06:29:29;;;;;;;28.55;14.40;;;1.50;99.90;;;;;;5094433;28;20156;-67
2020/12/10 06:32:05;;;;;;;24.38;16.52;;;1.80;99.90;;;;;;5094609;28;20583;-68
2020/12/10 06:34:44;;;;;;;26.90;16.27;;;1.80;99.90;;;;;;5094436;28;20182;-67
2020/12/10 06:37:29;;;;;;;28.25;17.02;;;1.70;99.90;;;;;;5094548;28;20254;-69
2020/12/10 06:40:03;;;;;;;29.00;16.88;;;1.60;99.90;;;;;;5094256;28;20198;-70
2020/12/10 06:42:48;;;;;;;26.20;15.27;;;1.50;99.90;;;;;;5093850;28;20187;-69
2020/12/10 06:45:28;;;;;;;28.70;16.98;;;1.80;99.90;;;;;;5094003;28;20243;-69
2020/12/10 06:47:54;;;;;;;24.50;15.35;;;1.80;99.90;;;;;;5093964;28;20634;-69
2020/12/10 06:50:30;;;;;;;26.10;14.93;;;1.70;99.90;;;;;;5093694;28;20175;-69
2020/12/10 06:53:16;;;;;;;27.98;15.48;;;1.80;99.90;;;;;;5094040;28;20940;-69
2020/12/10 06:55:57;;;;;;;25.00;14.93;;;1.70;99.90;;;;;;5094178;28;20163;-69
2020/12/10 06:58:39;;;;;;;32.53;16.17;;;1.90;99.90;;;;;;5093922;28;20683;-68
2020/12/10 07:01:24;;;;;;;24.40;14.48;;;1.90;91.00;;;;;;5093525;28;20164;-69
2020/12/10 07:03:56;;;;;;;25.90;14.82;;;1.90;96.20;;;;;;5093475;28;20194;-69
2020/12/10 07:06:22;;;;;;;24.95;15.18;;;1.60;99.90;;;;;;5093836;28;20242;-66
2020/12/10 07:09:13;;;;;;;22.83;14.83;;;1.70;99.90;;;;;;5093487;28;20205;-68
2020/12/10 07:11:44;;;;;;;23.13;14.70;;;1.70;99.90;;;;;;5093604;28;20360;-68
2020/12/10 07:14:31;;;;;;;23.67;14.05;;;1.80;53.10;;;;;;5093353;28;20218;-69
2020/12/10 07:16:56;;;;;;;29.55;15.80;;;2.00;84.30;;;;;;5093988;28;20152;-69
2020/12/10 07:19:23;;;;;;;23.13;13.27;;;2.00;44.90;;;;;;5093018;28;20597;-67
2020/12/10 07:21:49;;;;;;;23.88;15.95;;;1.90;70.80;;;;;;5093440;28;20164;-69
2020/12/10 07:24:14;;;;;;;23.85;13.75;;;1.80;71.80;;;;;;5092908;28;20188;-68
2020/12/10 07:26:41;;;;;;;27.93;15.33;;;1.60;99.90;;;;;;5093157;28;20480;-69
2020/12/10 07:29:06;;;;;;;23.38;13.77;;;1.70;99.90;;;;;;5092750;28;20179;-69
2020/12/10 07:31:32;;;;;;;22.27;14.80;;;1.80;99.90;;;;;;5108490;28;20175;-67
2020/12/10 07:33:59;;;;;;;20.47;13.97;;;1.90;64.70;;;;;;5092819;28;20205;-69
2020/12/10 07:36:27;;;;;;;25.63;15.02;;;1.60;95.60;;;;;;5093050;28;20171;-69
2020/12/10 07:38:53;;;;;;;26.27;16.00;;;1.60;99.90;;;;;;5093727;28;20203;-68
2020/12/10 07:41:18;;;;;;;24.73;14.20;;;1.90;81.60;;;;;;5092951;28;20267;-69
2020/12/10 07:43:46;;;;;;;29.60;14.37;;;1.80;53.60;;;;;;5108302;28;20411;-69
2020/12/10 07:46:12;;;;;;;27.55;16.60;;;1.70;99.90;;;;;;5092962;28;20225;-70
2020/12/10 07:48:38;;;;;;;22.52;13.70;;;1.90;99.90;;;;;;5092792;28;20167;-69
2020/12/10 07:51:04;;;;;;;27.02;15.15;;;1.90;62.50;;;;;;5092893;28;20167;-68
2020/12/10 07:53:29;;;;;;;29.63;15.27;;;1.80;67.50;;;;;;5092669;28;20194;-69
2020/12/10 07:56:00;;;;;;;25.50;14.70;;;1.70;76.60;;;;;;5092641;28;20254;-69
2020/12/10 07:58:42;;;;;;;24.15;15.02;;;1.90;99.90;;;;;;5092680;28;20218;-69
2020/12/10 08:01:09;;;;;;;23.23;14.60;;;2.20;26.30;;;;;;5092659;28;20159;-68
2020/12/10 08:03:59;;;;;;;25.67;14.65;;;2.10;31.00;;;;;;5092631;28;20193;-69
2020/12/10 08:06:31;;;;;;;25.23;14.02;;;1.90;46.50;;;;;;5092764;28;20193;-68
2020/12/10 08:09:01;;;;;;;22.50;13.48;;;1.90;78.60;;;;;;5092759;28;20676;-69
2020/12/10 08:11:27;;;;;;;21.70;15.15;;;1.90;51.10;;;;;;5092523;28;20254;-68
2020/12/10 08:14:01;;;;;;;27.20;14.90;;;2.20;32.70;;;;;;5092234;28;20214;-69
2020/12/10 08:16:47;;;;;;;24.90;14.18;;;2.30;17.50;;;;;;5092810;28;20179;-68
2020/12/10 08:19:18;;;;;;;25.50;14.73;;;2.40;1.00;;;;;;5092243;28;20238;-69
2020/12/10 08:21:45;;;;;;;28.77;15.43;;;2.20;16.50;;;;;;5092765;28;20156;-68
2020/12/10 08:24:12;;;;;;;24.65;12.82;;;2.60;4.10;;;;;;5092171;28;20183;-68
2020/12/10 08:26:39;;;;;;;21.63;12.63;;;2.60;1.00;;;;;;5092393;28;20663;-66
2020/12/10 08:29:04;;;;;;;19.48;12.80;;;2.40;1.00;;;;;;5092516;28;20708;-67
2020/12/10 08:31:32;;;;;;;25.13;12.93;;;2.70;1.00;;;;;;5092258;28;20172;-68
2020/12/10 08:33:58;;;;;;;22.15;14.02;;;2.80;1.00;;;;;;5092517;28;20195;-66
2020/12/10 08:36:33;;;;;;;22.00;12.97;;;2.90;1.00;;;;;;5092521;28;20198;-66
2020/12/10 08:39:03;;;;;;;27.67;14.00;;;2.80;1.00;;;;;;5092607;28;20193;-68
2020/12/10 08:41:31;;;;;;;18.83;13.02;;;2.80;1.00;;;;;;5093536;28;20171;-67
2020/12/10 08:44:02;;;;;;;26.75;13.43;;;3.00;1.00;;;;;;5096347;28;20195;-68
2020/12/10 08:46:30;;;;;;;19.08;12.70;;;3.10;1.00;;;;;;5096456;28;20507;-68
2020/12/10 08:48:57;;;;;;;18.95;12.38;;;3.10;1.00;;;;;;5096248;28;20221;-66
2020/12/10 08:51:36;;;;;;;25.63;12.88;;;3.10;1.00;;;;;;5096021;28;20717;-68
2020/12/10 08:54:04;;;;;;;20.52;12.93;;;2.80;1.00;;;;;;5095761;28;20629;-67
2020/12/10 08:56:35;;;;;;;22.33;12.27;;;2.90;1.00;;;;;;5095916;28;20521;-68
2020/12/10 08:59:01;;;;;;;22.10;11.32;;;3.10;1.00;;;;;;5096207;28;20187;-68
2020/12/10 09:01:26;;;;;;;39.03;13.23;;;3.20;1.00;;;;;;5095992;28;20255;-68
2020/12/10 09:03:52;;;;;;;21.73;13.03;;;3.30;1.00;;;;;;5096101;28;20179;-68
2020/12/10 09:06:17;;;;;;;25.00;13.70;;;3.60;1.00;;;;;;5096010;28;20171;-68
2020/12/10 09:08:43;;;;;;;21.73;12.90;;;3.70;1.00;;;;;;5095563;28;20178;-68
2020/12/10 09:11:08;;;;;;;20.37;12.00;;;4.20;1.00;;;;;;5095716;28;20266;-69
2020/12/10 09:13:34;;;;;;;22.00;12.60;;;4.20;1.00;;;;;;5095472;28;20207;-67
2020/12/10 09:16:00;;;;;;;19.73;13.27;;;4.00;1.00;;;;;;5095872;28;20164;-69
2020/12/10 09:18:25;;;;;;;26.97;12.43;;;4.40;1.00;;;;;;5095830;28;20191;-69
2020/12/10 09:20:52;;;;;;;19.37;13.23;;;4.40;1.00;;;;;;5095358;28;20185;-68
2020/12/10 09:23:17;;;;;;;21.90;13.18;;;4.40;1.00;;;;;;5095832;28;20211;-68
2020/12/10 09:25:43;;;;;;;18.57;11.77;;;4.60;1.00;;;;;;5095439;28;20175;-68
2020/12/10 09:28:09;;;;;;;30.57;12.57;;;4.70;1.00;;;;;;5095552;28;20171;-67
2020/12/10 09:30:36;;;;;;;23.90;11.10;;;4.60;1.00;;;;;;5095463;28;20270;-69
2020/12/10 09:33:03;;;;;;;25.92;12.35;;;4.50;1.00;;;;;;5095241;28;20659;-68
2020/12/10 09:35:28;;;;;;;21.92;11.60;;;4.50;1.00;;;;;;5094970;28;20218;-67
2020/12/10 09:37:54;;;;;;;18.03;12.47;;;4.90;1.00;;;;;;5095151;28;20172;-68
2020/12/10 09:40:19;;;;;;;17.70;12.47;;;5.10;1.00;;;;;;5095333;28;20160;-68
2020/12/10 09:42:47;;;;;;;24.73;13.00;;;5.40;1.00;;;;;;5095278;28;20562;-68
2020/12/10 09:45:16;;;;;;;20.73;12.18;;;5.30;1.00;;;;;;5095125;28;20614;-68
2020/12/10 09:47:46;;;;;;;29.40;14.70;;;5.20;1.00;;;;;;5094802;28;20250;-68
2020/12/10 09:50:21;;;;;;;25.77;13.75;;;5.40;1.00;;;;;;5094919;28;20172;-69
2020/12/10 09:53:03;;;;;;;33.22;13.45;;;5.60;1.00;;;;;;5095172;28;20194;-69
2020/12/10 09:58:00;;;;;;;21.60;13.57;;;5.80;1.00;;;;;;5095002;28;20163;-68
2020/12/10 10:00:25;;;;;;;19.00;13.00;;;5.90;1.00;;;;;;5095139;28;20167;-69
2020/12/10 10:02:52;;;;;;;23.53;13.53;;;6.20;1.00;;;;;;5094929;28;20278;-68
2020/12/10 10:05:17;;;;;;;22.73;12.65;;;6.10;1.00;;;;;;5094877;28;20539;-69
2020/12/10 10:07:43;;;;;;;22.30;12.77;;;6.30;1.00;;;;;;5110220;28;20160;-68
2020/12/10 10:10:08;;;;;;;23.97;13.10;;;6.30;1.00;;;;;;5094831;28;20709;-69
2020/12/10 10:12:34;;;;;;;20.43;12.20;;;6.10;1.00;;;;;;5094398;28;20211;-69
2020/12/10 10:15:00;;;;;;;17.77;10.82;;;6.70;1.00;;;;;;5094677;28;20262;-69
2020/12/10 10:17:25;;;;;;;20.40;12.37;;;6.90;1.00;;;;;;5094412;28;20596;-68
2020/12/10 10:19:51;;;;;;;20.47;11.23;;;6.80;1.00;;;;;;5094296;28;20605;-69
2020/12/10 10:22:18;;;;;;;30.40;13.57;;;6.70;1.00;;;;;;5094234;28;20167;-69
2020/12/10 10:24:43;;;;;;;27.00;12.27;;;7.20;1.00;;;;;;5094416;28;20221;-68
2020/12/10 10:27:09;;;;;;;23.10;11.07;;;7.30;1.00;;;;;;5094248;28;20175;-69
2020/12/10 10:29:34;;;;;;;16.67;11.47;;;7.40;1.00;;;;;;5094335;28;20171;-69
2020/12/10 10:32:00;;;;;;;20.53;11.83;;;7.40;1.00;;;;;;5109573;28;20171;-69
2020/12/10 10:34:26;;;;;;;35.23;14.43;;;7.60;1.00;;;;;;5094259;28;20179;-69
2020/12/10 10:36:51;;;;;;;28.73;13.13;;;7.50;1.00;;;;;;5094246;28;20174;-68
2020/12/10 10:39:17;;;;;;;28.87;12.80;;;7.60;1.00;;;;;;5094042;28;20195;-69
2020/12/10 10:41:48;;;;;;;19.63;11.57;;;7.50;1.00;;;;;;5093932;28;20168;-69
2020/12/10 10:44:15;;;;;;;29.08;13.85;;;7.60;1.00;;;;;;5092479;28;20533;-69
2020/12/10 10:46:40;;;;;;;21.17;12.27;;;7.70;1.00;;;;;;5093684;28;20171;-68
2020/12/10 10:49:07;;;;;;;23.70;11.73;;;7.90;1.00;;;;;;5093561;28;20168;-69
2020/12/10 10:51:33;;;;;;;65.30;14.57;;;7.90;1.00;;;;;;5094129;28;20547;-69
2020/12/10 10:53:59;;;;;;;45.67;14.43;;;7.50;1.00;;;;;;5093752;28;20190;-68
2020/12/10 10:56:25;;;;;;;41.03;15.10;;;7.10;1.00;;;;;;5093784;28;20271;-68
2020/12/10 10:58:51;;;;;;;16.95;11.13;;;7.70;1.00;;;;;;5093616;28;20194;-69
2020/12/10 11:01:25;;;;;;;20.48;10.98;;;7.90;1.00;;;;;;5093643;28;20262;-69
2020/12/10 11:03:51;;;;;;;25.67;12.77;;;8.50;1.00;;;;;;5108358;28;20681;-69
2020/12/10 11:06:16;;;;;;;14.73;9.43;;;8.20;1.00;;;;;;5093445;28;20194;-68
2020/12/10 11:08:42;;;;;;;21.93;12.50;;;8.10;1.00;;;;;;5093801;28;20608;-68
2020/12/10 11:11:07;;;;;;;23.50;13.47;;;8.10;1.00;;;;;;5094288;28;20229;-69
2020/12/10 11:13:33;;;;;;;19.80;9.80;;;8.00;1.00;;;;;;5116502;22;20707;-69
2020/12/10 11:15:59;;;;;;;12.10;9.30;;;8.30;1.00;;;;;;5094051;28;20185;-69
2020/12/10 11:18:25;;;;;;;13.80;10.13;;;8.60;1.00;;;;;;5093402;28;20199;-70
2020/12/10 11:20:50;;;;;;;14.00;8.07;;;8.60;1.00;;;;;;5093606;28;20255;-69
2020/12/10 11:23:16;;;;;;;15.80;8.70;;;8.50;1.00;;;;;;5093835;28;20222;-69
2020/12/10 11:25:41;;;;;;;17.20;9.40;;;8.80;1.00;;;;;;5093550;28;20604;-70
2020/12/10 11:28:07;;;;;;;16.73;9.83;;;8.60;1.00;;;;;;5093229;28;20273;-69
2020/12/10 11:30:32;;;;;;;46.80;11.93;;;8.90;1.00;;;;;;5093371;28;20190;-70
2020/12/10 11:32:58;;;;;;;18.03;8.80;;;8.90;1.00;;;;;;5093123;28;20175;-70
2020/12/10 11:35:24;;;;;;;14.10;8.47;;;8.80;1.00;;;;;;5093219;28;20240;-70
2020/12/10 11:37:54;;;;;;;22.40;8.40;;;8.70;1.00;;;;;;5093258;28;20628;-70
2020/12/10 11:40:20;;;;;;;16.77;8.43;;;8.90;1.00;;;;;;5094091;28;20155;-70
2020/12/10 11:42:48;;;;;;;11.70;8.20;;;8.90;1.00;;;;;;5093091;28;20195;-68
2020/12/10 11:45:13;;;;;;;15.55;9.40;;;8.40;1.00;;;;;;5093563;28;20388;-68
2020/12/10 11:47:39;;;;;;;54.63;13.00;;;8.40;1.00;;;;;;5093072;28;20701;-69
2020/12/10 11:50:05;;;;;;;30.20;16.57;;;8.80;1.00;;;;;;5093127;28;20175;-69
2020/12/10 11:52:30;;;;;;;73.07;19.63;;;9.10;1.00;;;;;;5092885;28;20182;-69
2020/12/10 11:54:56;;;;;;;19.43;7.00;;;8.70;1.00;;;;;;5092952;28;20192;-69
2020/12/10 11:57:21;;;;;;;33.23;8.37;;;8.50;1.00;;;;;;5092902;28;20191;-68
2020/12/10 11:59:47;;;;;;;30.03;8.13;;;8.50;1.00;;;;;;5092727;28;20605;-68
2020/12/10 12:02:13;;;;;;;34.43;8.40;;;8.60;1.00;;;;;;5092912;28;20709;-69
2020/12/10 12:04:38;;;;;;;33.53;11.87;;;8.20;1.00;;;;;;5092779;28;20187;-68
2020/12/10 12:07:04;;;;;;;14.47;7.83;;;7.70;1.00;;;;;;5093254;28;20171;-70
2020/12/10 12:09:29;;;;;;;32.43;9.47;;;7.90;1.00;;;;;;5092421;28;20168;-69
2020/12/10 12:11:55;;;;;;;19.67;8.17;;;8.00;1.00;;;;;;5092826;28;20479;-69
2020/12/10 12:14:21;;;;;;;20.67;7.33;;;7.80;1.00;;;;;;5092531;28;20209;-68
2020/12/10 12:16:47;;;;;;;32.03;7.40;;;7.80;1.00;;;;;;5093845;28;20301;-69
2020/12/10 12:19:14;;;;;;;25.75;7.03;;;7.80;1.00;;;;;;5096533;28;20595;-69
2020/12/10 12:21:40;;;;;;;16.42;7.43;;;7.80;1.00;;;;;;5096116;28;20167;-68
2020/12/10 12:24:05;;;;;;;30.83;7.40;;;7.90;1.00;;;;;;5096297;28;20693;-69
2020/12/10 12:26:32;;;;;;;38.77;8.07;;;7.80;1.00;;;;;;5096302;28;20251;-70
2020/12/10 12:28:58;;;;;;;29.48;8.10;;;7.30;1.00;;;;;;5096310;28;20182;-69
2020/12/10 12:31:31;;;;;;;31.80;7.47;;;7.30;1.00;;;;;;5096343;28;20175;-69
2020/12/10 12:33:57;;;;;;;39.20;9.88;;;7.60;1.00;;;;;;5096799;28;20417;-68
2020/12/10 12:36:23;;;;;;;33.20;9.90;;;7.20;1.00;;;;;;5096675;28;20298;-71
2020/12/10 12:38:48;;;;;;;20.73;6.77;;;7.20;1.00;;;;;;5096792;28;20668;-69
2020/12/10 12:41:14;;;;;;;33.03;8.77;;;7.30;1.00;;;;;;5096483;28;20163;-68
2020/12/10 12:43:40;;;;;;;18.58;5.88;;;7.10;1.00;;;;;;5096796;28;20680;-69
2020/12/10 12:46:07;;;;;;;35.73;7.77;;;6.90;1.00;;;;;;5096065;28;20175;-68
2020/12/10 12:48:33;;;;;;;37.60;7.40;;;6.70;1.00;;;;;;5096042;28;20171;-69